Time;durP1;ratioP1;P1;durP2;ratioP2;P2;SDS_P1;SDS_P2;PMS_P1;PMS_P2;Temp;Humidity;BMP_temperature;BMP_pressure;BME280_temperature;BME280_humidity;BME280_pressure;Samples;Min_cycle;Max_cycle;Signal;HPM_P1;HPM_P2
2023/01/11 00:00:05;;;;;;;2.80;0.77;;;;;;;;;;5055403;28;20878;-82
2023/01/11 00:02:33;;;;;;;1.27;0.70;;;;;;;;;;5054029;28;20515;-82
2023/01/11 00:05:02;;;;;;;3.80;0.67;;;;;;;;;;5053997;28;20758;-81
2023/01/11 00:07:27;;;;;;;2.37;0.70;;;;;;;;;;5053881;28;20425;-81
2023/01/11 00:09:53;;;;;;;3.20;0.70;;;;;;;;;;5054441;28;20421;-82
2023/01/11 00:12:19;;;;;;;2.77;1.03;;;;;;;;;;5053856;28;20418;-82
2023/01/11 00:14:45;;;;;;;2.13;0.63;;;;;;;;;;5053840;28;20454;-82
2023/01/11 00:17:11;;;;;;;4.37;1.40;;;;;;;;;;5053482;28;20516;-81
2023/01/11 00:19:37;;;;;;;3.27;0.67;;;;;;;;;;5053614;28;20450;-82
2023/01/11 00:22:03;;;;;;;1.77;0.57;;;;;;;;;;5053694;28;20472;-81
2023/01/11 00:24:29;;;;;;;1.60;1.03;;;;;;;;;;5053099;28;20429;-82
2023/01/11 00:26:55;;;;;;;1.70;0.80;;;;;;;;;;5054819;28;20963;-82
2023/01/11 00:29:21;;;;;;;4.20;0.90;;;;;;;;;;5053457;28;20926;-82
2023/01/11 00:31:47;;;;;;;5.40;1.37;;;;;;;;;;5054712;28;20774;-82
2023/01/11 00:34:13;;;;;;;1.63;1.03;;;;;;;;;;5053480;28;20829;-81
2023/01/11 00:36:38;;;;;;;3.93;1.27;;;;;;;;;;5053139;28;20518;-82
2023/01/11 00:39:04;;;;;;;4.10;0.90;;;;;;;;;;5052831;28;20901;-81
2023/01/11 00:49:44;;;;;;;6.70;1.10;;;;;;;;;;5054377;28;20783;-81
2023/01/11 00:52:10;;;;;;;2.77;0.83;;;;;;;;;;5054316;28;20402;-81
2023/01/11 00:54:40;;;;;;;8.90;1.07;;;;;;;;;;5054003;28;20409;-81
2023/01/11 00:57:06;;;;;;;3.90;0.97;;;;;;;;;;5054229;28;20572;-81
2023/01/11 00:59:33;;;;;;;2.50;1.13;;;;;;;;;;5054227;28;20420;-81
2023/01/11 01:01:59;;;;;;;2.13;0.33;;;;;;;;;;5054182;28;20407;-81
2023/01/11 01:04:31;;;;;;;2.50;0.93;;;;;;;;;;5012564;28;20446;-83
2023/01/11 01:06:57;;;;;;;2.00;0.50;;;;;;;;;;5052820;28;20965;-82
2023/01/11 01:09:23;;;;;;;5.83;2.10;;;;;;;;;;5052321;28;20528;-82
2023/01/11 01:11:52;;;;;;;2.87;0.77;;;;;;;;;;5052711;28;20417;-81
2023/01/11 01:14:30;;;;;;;2.00;0.83;;;;;;;;;;5053943;28;20445;-82
2023/01/11 01:17:06;;;;;;;8.90;1.63;;;;;;;;;;5053577;28;20484;-82
2023/01/11 01:19:33;;;;;;;2.83;0.53;;;;;;;;;;5053894;28;20419;-82
2023/01/11 01:21:59;;;;;;;9.03;1.57;;;;;;;;;;5053758;28;20432;-82
2023/01/11 01:24:27;;;;;;;1.70;0.70;;;;;;;;;;5053366;28;20398;-82
2023/01/11 01:26:53;;;;;;;4.90;1.70;;;;;;;;;;5052380;28;20763;-81
2023/01/11 01:29:19;;;;;;;5.77;0.70;;;;;;;;;;5052351;28;20461;-82
2023/01/11 01:31:45;;;;;;;5.93;1.33;;;;;;;;;;5052344;28;20491;-81
2023/01/11 01:34:12;;;;;;;2.13;0.50;;;;;;;;;;5052263;28;21325;-80
2023/01/11 01:36:38;;;;;;;6.07;0.90;;;;;;;;;;5052148;28;20478;-82
2023/01/11 01:39:05;;;;;;;3.30;0.67;;;;;;;;;;5051889;28;20414;-82
2023/01/11 01:41:31;;;;;;;5.90;1.37;;;;;;;;;;5052138;28;20433;-82
2023/01/11 01:43:58;;;;;;;1.93;0.57;;;;;;;;;;5052188;28;20424;-82
2023/01/11 01:46:28;;;;;;;1.37;0.43;;;;;;;;;;5051740;28;20815;-82
2023/01/11 01:49:00;;;;;;;1.60;0.50;;;;;;;;;;5052061;28;20419;-82
2023/01/11 01:51:38;;;;;;;9.73;0.70;;;;;;;;;;5053273;28;20500;-82
2023/01/11 01:54:06;;;;;;;1.97;0.43;;;;;;;;;;5053002;28;20413;-82
2023/01/11 01:56:34;;;;;;;4.60;0.90;;;;;;;;;;5053162;28;20477;-82
2023/01/11 01:59:02;;;;;;;3.53;1.03;;;;;;;;;;5053203;28;20405;-82
2023/01/11 02:01:48;;;;;;;4.37;0.93;;;;;;;;;;5053128;28;20502;-82
2023/01/11 02:04:14;;;;;;;1.80;0.50;;;;;;;;;;5051976;28;20764;-82
2023/01/11 02:06:40;;;;;;;2.30;0.83;;;;;;;;;;5051905;28;20415;-83
2023/01/11 02:09:11;;;;;;;1.43;0.70;;;;;;;;;;5052696;28;20178;-82
2023/01/11 02:11:42;;;;;;;1.90;0.40;;;;;;;;;;5011657;28;20447;-82
2023/01/11 02:14:10;;;;;;;1.50;0.70;;;;;;;;;;5051804;28;20415;-82
2023/01/11 02:16:37;;;;;;;5.03;1.03;;;;;;;;;;5051496;28;20516;-82
2023/01/11 02:19:03;;;;;;;3.03;0.57;;;;;;;;;;5052911;28;20439;-82
2023/01/11 02:21:46;;;;;;;4.90;0.73;;;;;;;;;;5051641;28;20425;-82
2023/01/11 02:24:12;;;;;;;2.50;0.37;;;;;;;;;;5052591;28;20415;-82
2023/01/11 02:26:45;;;;;;;4.50;0.70;;;;;;;;;;5052928;28;20591;-82
2023/01/11 02:29:17;;;;;;;1.63;0.53;;;;;;;;;;5052858;28;20414;-82
2023/01/11 02:31:50;;;;;;;2.23;0.70;;;;;;;;;;5051523;28;20434;-84
2023/01/11 02:34:24;;;;;;;2.87;0.90;;;;;;;;;;5052664;28;20407;-81
2023/01/11 02:37:03;;;;;;;1.40;0.43;;;;;;;;;;5051511;28;20521;-82
2023/01/11 02:39:29;;;;;;;1.40;0.20;;;;;;;;;;5052210;28;20805;-82
2023/01/11 02:45:02;;;;;;;1.23;0.50;;;;;;;;;;5052995;28;20773;-82
2023/01/11 02:47:30;;;;;;;2.03;0.60;;;;;;;;;;5052829;28;20494;-82
2023/01/11 02:50:02;;;;;;;3.70;0.67;;;;;;;;;;5051400;28;20752;-82
2023/01/11 02:52:37;;;;;;;2.50;0.37;;;;;;;;;;5051138;28;20932;-82
2023/01/11 02:55:04;;;;;;;2.70;1.00;;;;;;;;;;5051500;28;20466;-82
2023/01/11 02:57:32;;;;;;;2.57;0.50;;;;;;;;;;5051262;28;20475;-82
2023/01/11 02:59:58;;;;;;;2.20;0.60;;;;;;;;;;5055075;28;20424;-82
2023/01/11 03:02:24;;;;;;;1.77;0.50;;;;;;;;;;5055216;28;20435;-82
2023/01/11 03:04:50;;;;;;;1.33;0.60;;;;;;;;;;5055149;28;20427;-83
2023/01/11 03:07:29;;;;;;;2.03;0.30;;;;;;;;;;5054735;28;20518;-82
2023/01/11 03:09:55;;;;;;;1.00;0.20;;;;;;;;;;5055130;28;20506;-83
2023/01/11 03:12:53;;;;;;;1.17;0.27;;;;;;;;;;5055124;28;20422;-83
2023/01/11 03:15:30;;;;;;;0.93;0.40;;;;;;;;;;5054764;28;20461;-83
2023/01/11 03:18:02;;;;;;;1.03;0.30;;;;;;;;;;5054932;28;20435;-83
2023/01/11 03:20:33;;;;;;;0.50;0.20;;;;;;;;;;5054873;28;20751;-83
2023/01/11 03:23:02;;;;;;;1.70;0.37;;;;;;;;;;5054468;28;20944;-82
2023/01/11 03:25:35;;;;;;;2.80;0.60;;;;;;;;;;5054705;28;20461;-82
2023/01/11 03:28:24;;;;;;;1.17;0.30;;;;;;;;;;5056024;28;20506;-82
2023/01/11 03:30:56;;;;;;;0.90;0.20;;;;;;;;;;5054657;28;20421;-83
2023/01/11 03:33:28;;;;;;;1.80;0.70;;;;;;;;;;5054362;28;20442;-82
2023/01/11 03:35:58;;;;;;;2.23;0.97;;;;;;;;;;5055561;28;20863;-83
2023/01/11 03:38:32;;;;;;;1.60;0.27;;;;;;;;;;5054186;28;20988;-83
2023/01/11 03:41:03;;;;;;;0.93;0.40;;;;;;;;;;5054546;28;20448;-82
2023/01/11 03:43:30;;;;;;;0.93;0.30;;;;;;;;;;5054450;28;20791;-83
2023/01/11 03:46:02;;;;;;;1.10;0.20;;;;;;;;;;5013583;28;20440;-83
2023/01/11 03:48:34;;;;;;;0.50;0.20;;;;;;;;;;5055610;28;20429;-83
2023/01/11 03:51:01;;;;;;;1.97;0.30;;;;;;;;;;5054237;28;20429;-83
2023/01/11 03:53:29;;;;;;;1.40;0.20;;;;;;;;;;5053866;28;20751;-82
2023/01/11 03:55:57;;;;;;;1.00;0.30;;;;;;;;;;5054100;28;20466;-82
2023/01/11 03:58:24;;;;;;;0.80;0.20;;;;;;;;;;5054044;28;20439;-83
2023/01/11 04:00:50;;;;;;;1.77;0.30;;;;;;;;;;5054242;28;20772;-83
2023/01/11 04:03:16;;;;;;;2.07;0.90;;;;;;;;;;5053867;28;20480;-82
2023/01/11 04:05:43;;;;;;;1.23;0.20;;;;;;;;;;5053302;28;20877;-82
2023/01/11 04:08:10;;;;;;;1.90;0.20;;;;;;;;;;5053109;28;20793;-82
2023/01/11 04:10:36;;;;;;;0.50;0.20;;;;;;;;;;5053408;28;20444;-82
2023/01/11 04:13:02;;;;;;;0.40;0.23;;;;;;;;;;5053979;28;20983;-82
2023/01/11 04:15:30;;;;;;;0.67;0.30;;;;;;;;;;5052391;28;20554;-82
2023/01/11 04:18:03;;;;;;;0.73;0.20;;;;;;;;;;5055188;28;20400;-82
2023/01/11 04:20:29;;;;;;;0.60;0.20;;;;;;;;;;5053922;28;20434;-82
2023/01/11 04:22:55;;;;;;;0.70;0.27;;;;;;;;;;5053494;28;20416;-82
2023/01/11 04:25:21;;;;;;;0.77;0.20;;;;;;;;;;5055016;28;20418;-82
2023/01/11 04:27:47;;;;;;;1.00;0.27;;;;;;;;;;5054862;28;20491;-83
2023/01/11 04:30:13;;;;;;;1.67;0.30;;;;;;;;;;5053520;28;20416;-83
2023/01/11 04:32:39;;;;;;;0.83;0.30;;;;;;;;;;5053494;28;20459;-83
2023/01/11 04:35:05;;;;;;;0.97;0.40;;;;;;;;;;5053501;28;20448;-82
2023/01/11 04:37:34;;;;;;;1.17;0.50;;;;;;;;;;5053149;28;20472;-81
2023/01/11 04:40:00;;;;;;;1.57;0.20;;;;;;;;;;5053482;28;20430;-83
2023/01/11 04:42:26;;;;;;;0.60;0.20;;;;;;;;;;5053416;28;20415;-83
2023/01/11 04:44:52;;;;;;;6.10;0.70;;;;;;;;;;5053934;28;20898;-83
2023/01/11 04:47:19;;;;;;;0.57;0.20;;;;;;;;;;5053770;28;20484;-83
2023/01/11 04:49:45;;;;;;;0.67;0.20;;;;;;;;;;5053552;28;20469;-82
2023/01/11 04:52:12;;;;;;;0.80;0.20;;;;;;;;;;5053378;28;20421;-82
2023/01/11 04:54:38;;;;;;;4.80;0.63;;;;;;;;;;5053590;28;20407;-82
2023/01/11 04:57:04;;;;;;;0.50;0.20;;;;;;;;;;5054878;28;20513;-82
2023/01/11 04:59:30;;;;;;;2.30;0.50;;;;;;;;;;5053280;28;20452;-83
2023/01/11 05:01:56;;;;;;;0.60;0.20;;;;;;;;;;5053539;28;20415;-82
2023/01/11 05:04:25;;;;;;;0.90;0.30;;;;;;;;;;5052911;28;20420;-82
2023/01/11 05:06:51;;;;;;;1.43;0.43;;;;;;;;;;5052583;28;20456;-82
2023/01/11 05:09:17;;;;;;;0.60;0.30;;;;;;;;;;5052821;28;20450;-83
2023/01/11 05:11:43;;;;;;;2.77;0.47;;;;;;;;;;5054157;28;20450;-83
2023/01/11 05:14:09;;;;;;;1.40;0.43;;;;;;;;;;5052782;28;20419;-82
2023/01/11 05:16:35;;;;;;;2.93;0.27;;;;;;;;;;5053698;28;20487;-82
2023/01/11 05:19:01;;;;;;;0.70;0.20;;;;;;;;;;5053869;28;20887;-81
2023/01/11 05:21:30;;;;;;;0.63;0.27;;;;;;;;;;5053130;28;20408;-81
2023/01/11 05:23:57;;;;;;;1.17;0.30;;;;;;;;;;5052269;28;20474;-82
2023/01/11 05:26:27;;;;;;;0.97;0.27;;;;;;;;;;5052404;28;20927;-81
2023/01/11 05:28:54;;;;;;;0.40;0.20;;;;;;;;;;5052409;28;20420;-82
2023/01/11 05:31:20;;;;;;;0.90;0.20;;;;;;;;;;5053667;28;20550;-82
2023/01/11 05:33:46;;;;;;;0.80;0.27;;;;;;;;;;5053634;28;20441;-82
2023/01/11 05:36:17;;;;;;;0.30;0.20;;;;;;;;;;5052298;28;20466;-82
2023/01/11 05:38:45;;;;;;;1.53;0.27;;;;;;;;;;5051768;28;20413;-84
2023/01/11 05:41:10;;;;;;;0.77;0.20;;;;;;;;;;5052155;28;20972;-83
2023/01/11 05:45:27;;;;;;;0.67;0.20;;;;;;;;;;5052080;28;20451;-82
2023/01/11 05:46:23;;;;;;;1.17;0.40;;;;;;;;;;5053330;28;20420;-82
2023/01/11 05:48:49;;;;;;;0.83;0.30;;;;;;;;;;5053204;28;20415;-82
2023/01/11 05:51:15;;;;;;;0.30;0.20;;;;;;;;;;5052135;28;20435;-82
2023/01/11 05:53:41;;;;;;;0.97;0.20;;;;;;;;;;5052961;28;20762;-82
2023/01/11 05:56:07;;;;;;;0.50;0.20;;;;;;;;;;5053170;28;20476;-82
2023/01/11 05:58:33;;;;;;;0.40;0.20;;;;;;;;;;5053222;28;20404;-82
2023/01/11 06:00:59;;;;;;;0.80;0.33;;;;;;;;;;5053139;28;20898;-82
2023/01/11 06:03:26;;;;;;;0.90;0.40;;;;;;;;;;5051885;28;20423;-82
2023/01/11 06:05:52;;;;;;;0.50;0.30;;;;;;;;;;5053031;28;20427;-82
2023/01/11 06:08:19;;;;;;;0.40;0.20;;;;;;;;;;5052562;28;20426;-82
2023/01/11 06:10:51;;;;;;;0.50;0.20;;;;;;;;;;5013081;28;20436;-82
2023/01/11 06:13:26;;;;;;;0.67;0.20;;;;;;;;;;5053071;28;20496;-82
2023/01/11 06:15:53;;;;;;;0.40;0.20;;;;;;;;;;5051508;28;20995;-82
2023/01/11 06:18:19;;;;;;;0.30;0.20;;;;;;;;;;5053074;28;20415;-82
2023/01/11 06:20:52;;;;;;;0.57;0.20;;;;;;;;;;5053156;28;20862;-82
2023/01/11 06:23:18;;;;;;;0.30;0.20;;;;;;;;;;5052659;28;20937;-82
2023/01/11 06:25:45;;;;;;;0.30;0.20;;;;;;;;;;5053064;28;20974;-83
2023/01/11 06:28:11;;;;;;;0.40;0.10;;;;;;;;;;5051767;28;20543;-82
2023/01/11 06:30:37;;;;;;;1.43;0.20;;;;;;;;;;5051727;28;20443;-82
2023/01/11 06:33:06;;;;;;;0.40;0.20;;;;;;;;;;5055276;28;20423;-82
2023/01/11 06:35:33;;;;;;;0.40;0.20;;;;;;;;;;5057163;28;20411;-81
2023/01/11 06:37:59;;;;;;;0.57;0.20;;;;;;;;;;5056836;28;20939;-82
2023/01/11 06:40:25;;;;;;;1.03;0.20;;;;;;;;;;5057186;28;20493;-82
2023/01/11 06:42:51;;;;;;;0.50;0.30;;;;;;;;;;5056996;28;20449;-83
2023/01/11 06:45:17;;;;;;;0.80;0.20;;;;;;;;;;5057030;28;20756;-83
2023/01/11 06:47:43;;;;;;;0.30;0.20;;;;;;;;;;5057061;28;20410;-82
2023/01/11 06:50:09;;;;;;;0.50;0.20;;;;;;;;;;5057078;28;20811;-82
2023/01/11 06:52:35;;;;;;;0.50;0.20;;;;;;;;;;5056729;28;20409;-82
2023/01/11 06:55:01;;;;;;;0.80;0.30;;;;;;;;;;5056819;28;20922;-82
2023/01/11 06:57:28;;;;;;;0.63;0.40;;;;;;;;;;5056934;28;20559;-82
2023/01/11 06:59:55;;;;;;;2.10;0.20;;;;;;;;;;5057109;28;20416;-82
2023/01/11 07:02:21;;;;;;;0.77;0.20;;;;;;;;;;5056899;28;20519;-83
2023/01/11 07:04:47;;;;;;;1.90;0.20;;;;;;;;;;5056850;28;20448;-81
2023/01/11 07:07:15;;;;;;;0.30;0.20;;;;;;;;;;5056329;28;20821;-83
2023/01/11 07:09:41;;;;;;;1.73;0.30;;;;;;;;;;5055324;28;20818;-82
2023/01/11 07:12:07;;;;;;;1.47;0.30;;;;;;;;;;5056523;28;20448;-83
2023/01/11 07:14:33;;;;;;;0.50;0.20;;;;;;;;;;5016606;28;20449;-83
2023/01/11 07:16:59;;;;;;;1.03;0.20;;;8.60;99.90;;;;;;5056278;28;20620;-82
2023/01/11 07:19:25;;;;;;;0.53;0.20;;;;;;;;;;5055261;28;20778;-82
2023/01/11 07:21:51;;;;;;;0.53;0.20;;;;;;;;;;5056211;28;20185;-83
2023/01/11 07:24:17;;;;;;;1.17;0.20;;;;;;;;;;5056498;28;20876;-83
2023/01/11 07:26:43;;;;;;;0.80;0.30;;;8.50;99.90;;;;;;5056365;28;20787;-82
2023/01/11 07:29:09;;;;;;;0.60;0.23;;;8.60;99.90;;;;;;5056193;28;20413;-82
2023/01/11 07:31:36;;;;;;;0.73;0.20;;;;;;;;;;5056111;28;20174;-82
2023/01/11 07:34:04;;;;;;;1.87;0.40;;;;;;;;;;5056189;28;20397;-82
2023/01/11 07:36:30;;;;;;;0.50;0.20;;;;;;;;;;5054465;28;20493;-82
2023/01/11 07:38:58;;;;;;;0.50;0.20;;;;;;;;;;5056477;28;20400;-82
2023/01/11 07:44:08;;;;;;;2.03;0.50;;;;;;;;;;5055560;28;20920;-82
2023/01/11 07:46:33;;;;;;;0.90;0.27;;;8.70;99.90;;;;;;5054517;28;20528;-83
2023/01/11 07:48:59;;;;;;;0.73;0.40;;;8.80;99.90;;;;;;5055756;28;20515;-83
2023/01/11 07:51:26;;;;;;;0.80;0.27;;;;;;;;;;5054199;28;20627;-83
2023/01/11 07:53:53;;;;;;;1.17;0.40;;;;;;;;;;5055952;28;20196;-83
2023/01/11 07:56:20;;;;;;;0.73;0.40;;;;;;;;;;5055901;28;20540;-83
2023/01/11 07:58:46;;;;;;;2.23;0.33;;;;;;;;;;5055952;28;21085;-83
2023/01/11 08:01:12;;;;;;;1.07;0.30;;;;;;;;;;5056075;28;20948;-83
2023/01/11 08:03:38;;;;;;;0.67;0.20;;;;;;;;;;5055614;28;20423;-82
2023/01/11 08:06:10;;;;;;;0.83;0.33;;;;;;;;;;5054397;28;20971;-83
2023/01/11 08:08:36;;;;;;;2.30;0.37;;;8.70;99.90;;;;;;5053710;28;20421;-82
2023/01/11 08:16:30;;;;;;;0.83;0.20;;;;;;;;;;5014225;28;20487;-83
2023/01/11 08:18:56;;;;;;;0.80;0.37;;;;;;;;;;5055347;28;20444;-83
2023/01/11 08:21:27;;;;;;;2.10;0.53;;;;;;;;;;5053880;28;20424;-83
2023/01/11 08:23:54;;;;;;;1.13;0.77;;;;;;;;;;5053893;28;20419;-82
2023/01/11 08:26:19;;;;;;;1.43;0.50;;;;;;;;;;5053306;28;20424;-82
2023/01/11 08:28:46;;;;;;;1.10;0.40;;;;;;;;;;5054677;28;20420;-82
2023/01/11 08:31:14;;;;;;;0.70;0.30;;;9.20;99.90;;;;;;5054787;28;20422;-82
2023/01/11 08:33:40;;;;;;;2.13;0.20;;;9.10;99.90;;;;;;5054240;28;20421;-81
2023/01/11 08:36:10;;;;;;;0.87;0.40;;;9.20;99.90;;;;;;5054592;28;20416;-83
2023/01/11 08:38:35;;;;;;;0.97;0.40;;;9.20;99.90;;;;;;5054251;28;20179;-81
2023/01/11 08:41:02;;;;;;;1.63;0.70;;;9.10;99.90;;;;;;5054581;28;20416;-82
2023/01/11 08:43:30;;;;;;;1.57;0.60;;;9.10;99.90;;;;;;5054511;28;20203;-84
2023/01/11 08:45:56;;;;;;;0.87;0.20;;;9.10;99.90;;;;;;5053126;28;20413;-83
2023/01/11 08:48:25;;;;;;;1.03;0.60;;;9.10;99.90;;;;;;5054479;28;20422;-82
2023/01/11 08:50:51;;;;;;;1.03;0.40;;;9.10;99.90;;;;;;5054407;28;20911;-82
2023/01/11 08:53:19;;;;;;;1.33;0.40;;;9.20;99.90;;;;;;5054059;28;20425;-83
2023/01/11 08:55:47;;;;;;;0.83;0.40;;;9.10;99.90;;;;;;5052148;28;20175;-82
2023/01/11 08:58:13;;;;;;;1.00;0.30;;;9.20;99.90;;;;;;5052837;28;20491;-82
2023/01/11 09:00:38;;;;;;;1.67;0.33;;;9.10;99.90;;;;;;5054379;28;20414;-82
2023/01/11 09:03:04;;;;;;;1.27;0.50;;;9.20;99.90;;;;;;5053087;28;20182;-82
2023/01/11 09:05:29;;;;;;;1.33;0.40;;;9.30;99.90;;;;;;5054190;28;20176;-82
2023/01/11 09:07:55;;;;;;;1.73;0.63;;;9.30;99.90;;;;;;5052480;28;20177;-79
2023/01/11 09:10:25;;;;;;;5.33;0.87;;;9.30;99.90;;;;;;5052824;28;20223;-79
2023/01/11 09:12:52;;;;;;;1.97;0.70;;;9.40;99.90;;;;;;5054000;28;20424;-79
2023/01/11 09:15:17;;;;;;;1.83;0.63;;;9.40;99.90;;;;;;5022888;28;20464;-79
2023/01/11 09:17:45;;;;;;;1.50;0.73;;;9.40;99.90;;;;;;5042777;28;20833;-79
2023/01/11 09:20:11;;;;;;;1.30;0.97;;;9.40;99.90;;;;;;5053839;28;20176;-80
2023/01/11 09:22:36;;;;;;;1.50;0.60;;;9.40;99.90;;;;;;5053542;28;20807;-79
2023/01/11 09:25:02;;;;;;;1.37;1.07;;;9.40;99.90;;;;;;5053776;28;20425;-79
2023/01/11 09:27:31;;;;;;;1.20;0.50;;;9.50;99.90;;;;;;5053787;28;20652;-80
2023/01/11 09:30:01;;;;;;;2.63;1.23;;;9.50;99.90;;;;;;5053628;28;20837;-80
2023/01/11 09:32:26;;;;;;;1.60;0.47;;;9.50;99.90;;;;;;5052406;28;20430;-80
2023/01/11 09:34:56;;;;;;;1.50;1.00;;;9.50;99.90;;;;;;5052414;28;20445;-80
2023/01/11 09:37:21;;;;;;;1.87;1.07;;;9.50;99.90;;;;;;5053134;28;20209;-80
2023/01/11 09:39:48;;;;;;;1.70;0.70;;;9.50;99.90;;;;;;5052314;28;20429;-80
2023/01/11 09:42:30;;;;;;;1.53;0.60;;;9.50;99.90;;;;;;5053554;28;20516;-80
2023/01/11 09:45:17;;;;;;;3.50;0.50;;;9.40;99.90;;;;;;5052150;28;20781;-80
2023/01/11 09:47:52;;;;;;;1.57;0.67;;;9.50;99.90;;;;;;5054676;28;20465;-94
2023/01/11 09:50:25;;;;;;;1.53;0.20;;;9.60;99.90;;;;;;5057594;28;20421;-92
2023/01/11 09:52:55;;;;;;;2.33;0.63;;;9.60;99.90;;;;;;5060574;28;20490;-91
2023/01/11 09:55:38;;;;;;;0.77;0.20;;;9.60;99.90;;;;;;5054519;28;20418;-89
2023/01/11 09:58:41;;;;;;;0.50;0.20;;;9.60;99.90;;;;;;5053425;28;20469;-89
2023/01/11 10:01:32;;;;;;;1.17;0.30;;;9.60;99.90;;;;;;5053511;28;20436;-91
2023/01/11 10:04:14;;;;;;;1.80;0.30;;;9.50;99.90;;;;;;5054616;28;20406;-91
2023/01/11 10:07:13;;;;;;;1.90;0.20;;;9.60;99.90;;;;;;5053931;28;20411;-90
2023/01/11 10:10:21;;;;;;;1.63;0.20;;;9.60;99.90;;;;;;5053128;28;20420;-90
2023/01/11 10:13:12;;;;;;;4.67;0.20;;;9.60;99.90;;;;;;5053275;28;20528;-91
2023/01/11 10:16:19;;;;;;;1.20;0.20;;;9.50;99.90;;;;;;5049852;28;20469;-92
2023/01/11 10:19:04;;;;;;;1.23;0.30;;;9.50;99.90;;;;;;5053834;28;20934;-91
2023/01/11 10:22:00;;;;;;;1.33;0.20;;;9.50;99.90;;;;;;5017552;28;20543;-92
2023/01/11 10:24:28;;;;;;;2.30;0.30;;;9.40;99.90;;;;;;5051817;28;20439;-91
2023/01/11 10:26:58;;;;;;;1.17;0.20;;;9.50;99.90;;;;;;5052963;28;20435;-91
2023/01/11 10:35:44;;;;;;;1.43;0.30;;;9.40;99.90;;;;;;5031963;28;20824;-87
2023/01/11 10:38:37;;;;;;;2.93;0.30;;;9.40;99.90;;;;;;5032000;28;20477;-90
2023/01/11 10:41:24;;;;;;;2.03;0.60;;;9.40;99.90;;;;;;5049150;28;21179;-93
2023/01/11 10:44:08;;;;;;;3.57;0.47;;;9.50;99.90;;;;;;5047115;28;20421;-94
2023/01/11 10:46:45;;;;;;;1.20;0.20;;;9.50;99.90;;;;;;5049012;28;20481;-86
2023/01/11 10:49:28;;;;;;;5.93;0.30;;;9.40;99.90;;;;;;5056275;28;20465;-92
2023/01/11 10:52:03;;;;;;;0.80;0.20;;;9.40;99.90;;;;;;5059321;28;20425;-88
2023/01/11 10:54:32;;;;;;;2.53;0.40;;;9.30;99.90;;;;;;5055267;28;20430;-94
2023/01/11 10:57:19;;;;;;;4.37;0.47;;;9.40;99.90;;;;;;5055920;28;20892;-90
2023/01/11 11:00:21;;;;;;;3.50;0.30;;;9.40;99.90;;;;;;5054753;28;20406;-94
2023/01/11 11:03:21;;;;;;;1.50;0.20;;;9.40;99.90;;;;;;5061534;28;20429;-92
2023/01/11 11:06:17;;;;;;;1.27;0.33;;;9.40;99.90;;;;;;5059813;28;20899;-91
2023/01/11 11:09:08;;;;;;;2.93;0.40;;;9.40;99.90;;;;;;5056155;28;20513;-91
2023/01/11 11:11:39;;;;;;;1.37;0.40;;;9.40;99.90;;;;;;5054630;28;20431;-93
2023/01/11 11:14:35;;;;;;;3.73;0.73;;;9.40;99.90;;;;;;5057534;28;20979;-88
2023/01/11 11:17:30;;;;;;;1.93;0.40;;;9.40;99.90;;;;;;5061858;28;20504;-93
2023/01/11 11:19:56;;;;;;;2.17;0.67;;;9.40;99.90;;;;;;5060415;28;20427;-88
2023/01/11 11:22:22;;;;;;;2.30;0.30;;;9.40;99.90;;;;;;5035047;28;20436;-89
2023/01/11 11:25:06;;;;;;;4.50;0.57;;;9.40;99.90;;;;;;5074813;28;20488;-88
2023/01/11 11:27:48;;;;;;;3.00;0.40;;;9.40;99.90;;;;;;5072879;28;20189;-89
2023/01/11 11:30:28;;;;;;;1.70;0.87;;;9.40;99.90;;;;;;5066266;28;20996;-86
2023/01/11 11:33:02;;;;;;;2.27;0.50;;;9.40;99.90;;;;;;5062422;28;20414;-87
2023/01/11 11:35:38;;;;;;;1.10;0.37;;;9.40;99.90;;;;;;5065239;28;20505;-90
2023/01/11 11:38:04;;;;;;;3.07;0.80;;;9.50;99.90;;;;;;5062255;28;20529;-88
2023/01/11 11:40:36;;;;;;;2.13;0.40;;;9.40;99.90;;;;;;5062333;28;20459;-88
2023/01/11 11:43:10;;;;;;;1.63;0.30;;;9.50;99.90;;;;;;5046104;28;20498;-86
2023/01/11 11:45:35;;;;;;;1.93;0.40;;;9.40;99.90;;;;;;5060403;28;20815;-90
2023/01/11 11:48:04;;;;;;;1.83;0.20;;;9.50;99.90;;;;;;5064475;28;20464;-89
2023/01/11 11:50:31;;;;;;;0.90;0.30;;;9.50;99.90;;;;;;5063076;28;20186;-87
2023/01/11 11:53:02;;;;;;;2.43;0.37;;;9.50;99.90;;;;;;5059540;28;20442;-89
2023/01/11 11:55:31;;;;;;;3.80;0.50;;;9.50;99.90;;;;;;5060042;28;20426;-87
2023/01/11 11:58:02;;;;;;;4.07;0.87;;;9.80;99.90;;;;;;5062280;28;20478;-88
2023/01/11 12:00:33;;;;;;;4.90;1.13;;;9.50;99.90;;;;;;5063297;28;20419;-88
2023/01/11 12:03:04;;;;;;;2.53;0.50;;;9.40;99.90;;;;;;5058386;28;20529;-88
2023/01/11 12:05:31;;;;;;;1.60;0.40;;;9.40;99.90;;;;;;5054860;28;20799;-87
2023/01/11 12:07:57;;;;;;;1.27;0.23;;;9.50;99.90;;;;;;5053900;28;20419;-87
2023/01/11 12:10:25;;;;;;;1.80;0.40;;;9.50;99.90;;;;;;5054350;28;20432;-87
2023/01/11 12:12:57;;;;;;;2.83;0.60;;;9.40;99.90;;;;;;5055301;28;20400;-86
2023/01/11 12:15:28;;;;;;;3.17;0.77;;;9.40;99.90;;;;;;5087381;28;20449;-86
2023/01/11 12:17:55;;;;;;;4.83;0.73;;;9.40;99.90;;;;;;5054319;28;20545;-86
2023/01/11 12:20:22;;;;;;;1.93;0.50;;;;;;;;;;5054263;28;20511;-90
2023/01/11 12:22:49;;;;;;;0.53;0.20;;;;;;;;;;5017745;28;20489;-88
2023/01/11 12:25:24;;;;;;;2.53;0.47;;;;;;;;;;5055255;28;20444;-86
2023/01/11 12:28:14;;;;;;;2.20;0.40;;;;;;;;;;5054807;28;20423;-88
2023/01/11 12:31:16;;;;;;;2.13;0.30;;;;;;;;;;5049824;28;20449;-89
2023/01/11 12:33:43;;;;;;;1.10;0.30;;;;;;;;;;5035497;28;20421;-86
2023/01/11 12:36:18;;;;;;;0.63;0.20;;;;;;;;;;5055565;28;20459;-88
2023/01/11 12:38:44;;;;;;;4.93;0.77;;;;;;;;;;5054528;28;20427;-91
2023/01/11 12:41:42;;;;;;;2.30;0.50;;;;;;;;;;5054959;28;20855;-87
2023/01/11 12:44:26;;;;;;;3.27;0.40;;;;;;;;;;5054312;28;20185;-93
2023/01/11 12:46:52;;;;;;;6.37;1.90;;;;;;;;;;5055654;28;20515;-90
2023/01/11 12:49:30;;;;;;;3.70;0.73;;;;;;;;;;5054106;28;20511;-88
2023/01/11 12:52:02;;;;;;;3.43;0.70;;;;;;;;;;5068232;28;20410;-87
2023/01/11 12:54:46;;;;;;;2.80;1.10;;;;;;;;;;5068501;28;20525;-93
2023/01/11 12:57:12;;;;;;;2.50;0.93;;;;;;;;;;5062538;28;20464;-93
2023/01/11 13:00:14;;;;;;;5.23;0.47;;;;;;;;;;5060413;28;20484;-92
2023/01/11 13:02:58;;;;;;;4.90;0.77;;;;;;;;;;5018850;28;20432;-91
2023/01/11 13:05:27;;;;;;;2.10;0.30;;;;;;;;;;5055464;28;20413;-94
2023/01/11 13:08:16;;;;;;;1.67;0.50;;;;;;;;;;5057450;28;20418;-95
2023/01/11 13:10:51;;;;;;;4.13;0.53;;;;;;;;;;5050901;28;20428;-82
2023/01/11 13:13:44;;;;;;;1.93;1.03;;;;;;;;;;5062991;28;20762;-90
2023/01/11 13:16:16;;;;;;;2.03;0.30;;;;;;;;;;5066831;28;20475;-88
2023/01/11 13:18:42;;;;;;;2.70;0.60;;;;;;;;;;5059645;28;20418;-92
2023/01/11 13:21:08;;;;;;;3.70;0.63;;;;;;;;;;5060401;28;20441;-94
2023/01/11 13:23:38;;;;;;;2.23;0.87;;;;;;;;;;5023422;28;20438;-94
2023/01/11 13:26:25;;;;;;;3.37;0.83;;;;;;;;;;5059621;28;20455;-96
2023/01/11 13:28:57;;;;;;;4.80;1.10;;;;;;;;;;5051296;28;20893;-87
2023/01/11 13:31:24;;;;;;;3.27;0.53;;;;;;;;;;5058064;28;20412;-95
2023/01/11 13:33:55;;;;;;;6.30;1.27;;;;;;;;;;5058959;28;20415;-91
2023/01/11 13:36:23;;;;;;;7.60;1.57;;;;;;;;;;5061893;28;20439;-90
2023/01/11 13:38:53;;;;;;;4.67;0.53;;;;;;;;;;5063805;28;20450;-90
2023/01/11 13:41:21;;;;;;;4.93;1.60;;;;;;;;;;5065774;28;20407;-82
2023/01/11 13:43:59;;;;;;;2.37;0.77;;;;;;;;;;5056033;28;20510;-92
2023/01/11 13:46:30;;;;;;;7.30;1.33;;;;;;;;;;5061237;28;20437;-94
2023/01/11 13:49:04;;;;;;;9.07;1.73;;;;;;;;;;5059008;28;20406;-95
2023/01/11 13:51:38;;;;;;;3.93;0.87;;;;;;;;;;5056919;28;20406;-93
2023/01/11 13:54:08;;;;;;;4.10;1.13;;;;;;;;;;5057651;28;20438;-93
2023/01/11 13:56:37;;;;;;;5.60;1.00;;;;;;;;;;5056968;28;20436;-93
2023/01/11 13:59:26;;;;;;;3.37;0.83;;;;;;;;;;5058730;28;20426;-89
2023/01/11 14:01:59;;;;;;;2.13;0.70;;;;;;;;;;5064020;28;20489;-94
2023/01/11 14:04:40;;;;;;;4.47;1.30;;;;;;;;;;5063826;28;20426;-93
2023/01/11 14:07:22;;;;;;;4.90;1.03;;;;;;;;;;5061802;28;20878;-89
2023/01/11 14:09:58;;;;;;;3.77;0.93;;;;;;;;;;5059522;28;20450;-84
2023/01/11 14:12:25;;;;;;;6.57;0.93;;;;;;;;;;5053780;28;20427;-94
2023/01/11 14:15:02;;;;;;;3.93;1.37;;;;;;;;;;5055414;28;20441;-89
2023/01/11 14:20:42;;;;;;;6.70;1.57;;;;;;;;;;5073211;28;20419;-90
2023/01/11 14:23:15;;;;;;;6.53;1.33;;;;;;;;;;5074102;28;20421;-93
2023/01/11 14:26:00;;;;;;;6.60;1.03;;;;;;;;;;5044505;28;20730;-86
2023/01/11 14:28:45;;;;;;;2.20;1.07;;;;;;;;;;5070027;28;20425;-94
2023/01/11 14:31:29;;;;;;;5.40;1.00;;;;;;;;;;5066967;28;20393;-87
2023/01/11 14:34:10;;;;;;;5.27;0.53;;;;;;;;;;5065100;28;20415;-91
2023/01/11 14:36:56;;;;;;;7.87;1.13;;;;;;;;;;5066486;28;20909;-88
2023/01/11 14:39:50;;;;;;;1.97;0.50;;;;;;;;;;5065199;28;20406;-88
2023/01/11 14:42:19;;;;;;;4.33;0.70;;;;;;;;;;5067773;28;20432;-84
2023/01/11 14:45:04;;;;;;;3.70;0.97;;;;;;;;;;5068866;28;20417;-87
2023/01/11 14:47:42;;;;;;;1.03;0.50;;;;;;;;;;5066154;28;21313;-89
2023/01/11 14:50:23;;;;;;;5.07;1.17;;;;;;;;;;5068123;28;20432;-87
2023/01/11 14:52:50;;;;;;;3.37;0.50;;;;;;;;;;5066730;28;20413;-91
2023/01/11 14:55:25;;;;;;;6.10;1.20;;;;;;;;;;5053854;28;20449;-88
2023/01/11 14:57:50;;;;;;;3.77;0.40;;;;;;;;;;5041244;28;20488;-84
2023/01/11 15:00:19;;;;;;;4.80;1.40;;;;;;;;;;5048179;28;20407;-87
2023/01/11 15:03:01;;;;;;;5.57;1.13;;;;;;;;;;5051430;28;20429;-95